sensor_id;sensor_type;location;lat;lon;timestamp;pressure;altitude;pressure_sealevel;temperature;humidity
6196;BME280;3131;42.630;23.382;2022-12-07T00:01:53;94404.70;;;4.10;100.00
6196;BME280;3131;42.630;23.382;2022-12-07T00:04:23;94401.22;;;4.04;100.00
6196;BME280;3131;42.630;23.382;2022-12-07T00:06:53;94403.09;;;4.09;100.00
6196;BME280;3131;42.630;23.382;2022-12-07T00:09:22;94397.84;;;4.15;100.00
6196;BME280;3131;42.630;23.382;2022-12-07T00:11:51;94396.52;;;4.17;100.00
6196;BME280;3131;42.630;23.382;2022-12-07T00:14:20;94392.70;;;4.18;100.00
6196;BME280;3131;42.630;23.382;2022-12-07T00:16:51;94401.83;;;4.19;100.00
6196;BME280;3131;42.630;23.382;2022-12-07T00:19:21;94398.39;;;4.22;100.00
6196;BME280;3131;42.630;23.382;2022-12-07T00:24:31;94386.45;;;4.29;100.00
6196;BME280;3131;42.630;23.382;2022-12-07T00:29:46;94381.75;;;4.31;100.00
6196;BME280;3131;42.630;23.382;2022-12-07T00:35:02;94375.19;;;4.39;100.00
6196;BME280;3131;42.630;23.382;2022-12-07T00:40:13;94376.05;;;4.48;100.00
6196;BME280;3131;42.630;23.382;2022-12-07T00:42:42;94390.05;;;4.42;100.00
6196;BME280;3131;42.630;23.382;2022-12-07T00:47:51;94383.63;;;4.36;100.00
6196;BME280;3131;42.630;23.382;2022-12-07T00:53:00;94373.02;;;4.50;100.00
6196;BME280;3131;42.630;23.382;2022-12-07T00:58:13;94367.75;;;4.48;100.00
6196;BME280;3131;42.630;23.382;2022-12-07T01:00:43;94370.64;;;4.38;100.00
6196;BME280;3131;42.630;23.382;2022-12-07T01:03:14;94363.38;;;4.42;100.00
6196;BME280;3131;42.630;23.382;2022-12-07T01:05:51;94368.45;;;4.41;100.00
6196;BME280;3131;42.630;23.382;2022-12-07T01:08:21;94372.34;;;4.38;100.00
6196;BME280;3131;42.630;23.382;2022-12-07T01:10:57;94382.19;;;4.41;100.00
6196;BME280;3131;42.630;23.382;2022-12-07T01:13:27;94389.11;;;4.45;100.00
6196;BME280;3131;42.630;23.382;2022-12-07T01:15:59;94378.77;;;4.52;100.00
6196;BME280;3131;42.630;23.382;2022-12-07T01:18:29;94374.89;;;4.55;100.00
6196;BME280;3131;42.630;23.382;2022-12-07T01:23:47;94365.38;;;4.63;100.00
6196;BME280;3131;42.630;23.382;2022-12-07T01:26:18;94374.66;;;4.51;100.00
6196;BME280;3131;42.630;23.382;2022-12-07T01:31:35;94354.59;;;4.44;100.00
6196;BME280;3131;42.630;23.382;2022-12-07T01:36:50;94353.48;;;4.41;100.00
6196;BME280;3131;42.630;23.382;2022-12-07T01:41:59;94351.88;;;4.30;100.00
6196;BME280;3131;42.630;23.382;2022-12-07T01:47:13;94357.88;;;4.26;100.00
6196;BME280;3131;42.630;23.382;2022-12-07T01:52:25;94355.44;;;4.24;100.00
6196;BME280;3131;42.630;23.382;2022-12-07T01:54:58;94318.58;;;3.91;100.00
6196;BME280;3131;42.630;23.382;2022-12-07T01:57:28;94354.28;;;4.31;100.00
6196;BME280;3131;42.630;23.382;2022-12-07T02:02:43;94341.84;;;4.40;100.00
6196;BME280;3131;42.630;23.382;2022-12-07T02:07:56;94336.27;;;4.35;100.00
6196;BME280;3131;42.630;23.382;2022-12-07T02:13:11;94337.07;;;4.35;100.00
6196;BME280;3131;42.630;23.382;2022-12-07T02:18:44;94324.14;;;4.36;100.00
6196;BME280;3131;42.630;23.382;2022-12-07T02:21:18;94335.78;;;4.27;100.00
6196;BME280;3131;42.630;23.382;2022-12-07T02:30:16;94346.61;;;4.36;100.00
6196;BME280;3131;42.630;23.382;2022-12-07T02:32:51;94345.84;;;4.25;100.00
6196;BME280;3131;42.630;23.382;2022-12-07T02:35:21;94348.48;;;4.31;100.00
6196;BME280;3131;42.630;23.382;2022-12-07T02:40:41;94332.89;;;4.36;100.00
6196;BME280;3131;42.630;23.382;2022-12-07T02:43:14;94341.08;;;4.29;100.00
6196;BME280;3131;42.630;23.382;2022-12-07T02:45:45;94328.08;;;4.31;100.00
6196;BME280;3131;42.630;23.382;2022-12-07T02:48:16;94337.07;;;4.35;100.00
6196;BME280;3131;42.630;23.382;2022-12-07T02:53:35;94338.45;;;4.32;100.00
6196;BME280;3131;42.630;23.382;2022-12-07T02:56:07;94352.34;;;4.19;100.00
6196;BME280;3131;42.630;23.382;2022-12-07T02:58:42;94344.47;;;4.18;100.00
6196;BME280;3131;42.630;23.382;2022-12-07T03:01:16;94342.23;;;4.22;100.00
6196;BME280;3131;42.630;23.382;2022-12-07T03:03:48;94349.72;;;4.12;100.00
6196;BME280;3131;42.630;23.382;2022-12-07T03:06:21;94338.08;;;4.12;100.00
6196;BME280;3131;42.630;23.382;2022-12-07T03:08:55;94330.41;;;4.07;100.00
6196;BME280;3131;42.630;23.382;2022-12-07T03:11:29;94326.41;;;4.03;100.00
6196;BME280;3131;42.630;23.382;2022-12-07T03:14:01;94327.42;;;3.99;100.00
6196;BME280;3131;42.630;23.382;2022-12-07T03:19:20;94317.83;;;4.00;100.00
6196;BME280;3131;42.630;23.382;2022-12-07T03:21:53;94331.37;;;3.94;100.00
6196;BME280;3131;42.630;23.382;2022-12-07T03:27:13;94405.59;;;4.09;100.00
6196;BME280;3131;42.630;23.382;2022-12-07T03:29:45;94451.44;;;4.07;100.00
6196;BME280;3131;42.630;23.382;2022-12-07T03:32:18;94458.48;;;3.97;100.00
6196;BME280;3131;42.630;23.382;2022-12-07T03:34:49;94461.47;;;3.95;100.00
6196;BME280;3131;42.630;23.382;2022-12-07T03:37:22;94459.09;;;3.92;100.00
6196;BME280;3131;42.630;23.382;2022-12-07T03:42:34;94455.99;;;3.97;100.00
6196;BME280;3131;42.630;23.382;2022-12-07T03:45:05;94495.11;;;3.97;100.00
6196;BME280;3131;42.630;23.382;2022-12-07T03:47:37;94521.84;;;3.93;100.00
6196;BME280;3131;42.630;23.382;2022-12-07T03:50:10;94569.11;;;3.86;100.00
6196;BME280;3131;42.630;23.382;2022-12-07T03:55:22;94540.94;;;3.84;100.00
6196;BME280;3131;42.630;23.382;2022-12-07T03:57:54;94586.06;;;3.78;100.00
6196;BME280;3131;42.630;23.382;2022-12-07T04:00:24;94578.84;;;3.82;100.00
6196;BME280;3131;42.630;23.382;2022-12-07T04:02:54;94586.94;;;3.87;100.00
6196;BME280;3131;42.630;23.382;2022-12-07T04:05:24;94584.84;;;3.88;100.00
6196;BME280;3131;42.630;23.382;2022-12-07T04:07:53;94589.09;;;3.96;100.00
6196;BME280;3131;42.630;23.382;2022-12-07T04:10:23;94588.79;;;3.93;100.00
6196;BME280;3131;42.630;23.382;2022-12-07T04:12:52;94587.77;;;3.87;100.00
6196;BME280;3131;42.630;23.382;2022-12-07T04:15:22;94596.39;;;3.90;100.00
6196;BME280;3131;42.630;23.382;2022-12-07T04:17:52;94598.45;;;3.91;100.00
6196;BME280;3131;42.630;23.382;2022-12-07T04:20:22;94597.75;;;3.87;100.00
6196;BME280;3131;42.630;23.382;2022-12-07T04:25:38;94561.26;;;3.85;100.00
6196;BME280;3131;42.630;23.382;2022-12-07T04:28:07;94607.45;;;3.83;100.00
6196;BME280;3131;42.630;23.382;2022-12-07T04:30:36;94612.28;;;3.88;100.00
6196;BME280;3131;42.630;23.382;2022-12-07T04:33:06;94619.58;;;3.92;100.00
6196;BME280;3131;42.630;23.382;2022-12-07T04:35:36;94618.73;;;3.93;100.00
6196;BME280;3131;42.630;23.382;2022-12-07T04:38:05;94632.34;;;3.97;100.00
6196;BME280;3131;42.630;23.382;2022-12-07T04:40:35;94638.25;;;3.94;100.00
6196;BME280;3131;42.630;23.382;2022-12-07T04:43:04;94643.39;;;3.89;100.00
6196;BME280;3131;42.630;23.382;2022-12-07T04:45:34;94641.83;;;3.87;100.00
6196;BME280;3131;42.630;23.382;2022-12-07T04:48:04;94645.09;;;3.89;100.00
6196;BME280;3131;42.630;23.382;2022-12-07T04:53:18;94603.36;;;3.92;100.00
6196;BME280;3131;42.630;23.382;2022-12-07T04:55:47;94668.16;;;3.84;100.00
6196;BME280;3131;42.630;23.382;2022-12-07T04:58:16;94664.42;;;3.84;100.00
6196;BME280;3131;42.630;23.382;2022-12-07T05:00:46;94667.13;;;3.78;100.00
6196;BME280;3131;42.630;23.382;2022-12-07T05:03:15;94672.64;;;3.74;100.00
6196;BME280;3131;42.630;23.382;2022-12-07T05:05:44;94669.08;;;3.69;100.00
6196;BME280;3131;42.630;23.382;2022-12-07T05:08:14;94665.34;;;3.69;100.00
6196;BME280;3131;42.630;23.382;2022-12-07T05:10:43;94678.17;;;3.70;100.00
6196;BME280;3131;42.630;23.382;2022-12-07T05:13:12;94685.11;;;3.74;100.00
6196;BME280;3131;42.630;23.382;2022-12-07T05:15:42;94688.22;;;3.69;100.00
6196;BME280;3131;42.630;23.382;2022-12-07T05:18:11;94686.17;;;3.68;100.00
6196;BME280;3131;42.630;23.382;2022-12-07T05:23:28;94639.52;;;3.70;100.00
6196;BME280;3131;42.630;23.382;2022-12-07T05:25:57;94717.48;;;3.64;100.00
6196;BME280;3131;42.630;23.382;2022-12-07T05:28:26;94718.91;;;3.59;100.00
6196;BME280;3131;42.630;23.382;2022-12-07T05:30:56;94728.99;;;3.56;100.00
6196;BME280;3131;42.630;23.382;2022-12-07T05:33:25;94728.48;;;3.58;100.00
6196;BME280;3131;42.630;23.382;2022-12-07T05:35:54;94737.98;;;3.60;100.00
6196;BME280;3131;42.630;23.382;2022-12-07T05:38:23;94746.23;;;3.62;100.00
6196;BME280;3131;42.630;23.382;2022-12-07T05:40:53;94759.75;;;3.68;100.00
6196;BME280;3131;42.630;23.382;2022-12-07T05:43:22;94773.91;;;3.68;100.00
6196;BME280;3131;42.630;23.382;2022-12-07T05:45:52;94782.94;;;3.70;100.00
6196;BME280;3131;42.630;23.382;2022-12-07T05:48:21;94782.13;;;3.70;100.00
6196;BME280;3131;42.630;23.382;2022-12-07T05:50:51;94791.73;;;3.69;100.00
6196;BME280;3131;42.630;23.382;2022-12-07T05:56:01;94746.12;;;3.77;100.00
6196;BME280;3131;42.630;23.382;2022-12-07T05:58:30;94832.69;;;3.75;100.00
6196;BME280;3131;42.630;23.382;2022-12-07T06:01:17;94836.36;;;3.77;100.00
6196;BME280;3131;42.630;23.382;2022-12-07T06:03:47;94859.72;;;3.87;100.00
6196;BME280;3131;42.630;23.382;2022-12-07T06:06:16;94872.33;;;3.83;100.00
6196;BME280;3131;42.630;23.382;2022-12-07T06:08:46;94882.81;;;3.81;100.00
6196;BME280;3131;42.630;23.382;2022-12-07T06:11:15;94888.75;;;3.77;100.00
6196;BME280;3131;42.630;23.382;2022-12-07T06:16:57;94832.52;;;3.80;100.00
6196;BME280;3131;42.630;23.382;2022-12-07T06:19:27;94922.19;;;3.84;100.00
6196;BME280;3131;42.630;23.382;2022-12-07T06:21:56;94926.55;;;3.91;100.00
6196;BME280;3131;42.630;23.382;2022-12-07T06:24:26;94928.44;;;3.96;100.00
6196;BME280;3131;42.630;23.382;2022-12-07T06:26:56;94928.14;;;4.05;100.00
6196;BME280;3131;42.630;23.382;2022-12-07T06:29:25;94926.95;;;4.04;100.00
6196;BME280;3131;42.630;23.382;2022-12-07T06:31:55;94934.28;;;4.08;100.00
6196;BME280;3131;42.630;23.382;2022-12-07T06:34:25;94939.84;;;4.16;100.00
6196;BME280;3131;42.630;23.382;2022-12-07T06:36:55;94941.05;;;4.30;100.00
6196;BME280;3131;42.630;23.382;2022-12-07T06:39:26;94937.98;;;4.35;100.00
6196;BME280;3131;42.630;23.382;2022-12-07T06:41:57;94936.17;;;4.50;100.00
6196;BME280;3131;42.630;23.382;2022-12-07T06:44:27;94929.25;;;4.70;100.00
6196;BME280;3131;42.630;23.382;2022-12-07T06:46:56;94926.35;;;4.81;100.00
6196;BME280;3131;42.630;23.382;2022-12-07T06:49:25;94922.86;;;4.85;100.00
6196;BME280;3131;42.630;23.382;2022-12-07T06:51:55;94917.04;;;5.08;100.00
6196;BME280;3131;42.630;23.382;2022-12-07T06:54:25;94905.34;;;5.08;100.00
6196;BME280;3131;42.630;23.382;2022-12-07T06:56:54;94893.17;;;5.11;100.00
6196;BME280;3131;42.630;23.382;2022-12-07T06:59:24;94884.70;;;5.25;100.00
6196;BME280;3131;42.630;23.382;2022-12-07T07:01:53;94866.70;;;5.27;100.00
6196;BME280;3131;42.630;23.382;2022-12-07T07:04:22;94849.89;;;5.31;100.00
6196;BME280;3131;42.630;23.382;2022-12-07T07:06:52;94833.27;;;5.30;100.00
6196;BME280;3131;42.630;23.382;2022-12-07T07:09:22;94815.00;;;5.18;100.00
6196;BME280;3131;42.630;23.382;2022-12-07T07:11:51;94800.88;;;5.27;100.00
6196;BME280;3131;42.630;23.382;2022-12-07T07:14:20;94789.26;;;5.46;100.00
6196;BME280;3131;42.630;23.382;2022-12-07T07:16:50;94774.13;;;5.49;100.00
6196;BME280;3131;42.630;23.382;2022-12-07T07:19:20;94760.17;;;5.44;100.00
6196;BME280;3131;42.630;23.382;2022-12-07T07:21:49;94746.15;;;5.60;100.00
6196;BME280;3131;42.630;23.382;2022-12-07T07:24:18;94725.43;;;5.67;100.00
6196;BME280;3131;42.630;23.382;2022-12-07T07:26:48;94708.15;;;5.81;100.00
6196;BME280;3131;42.630;23.382;2022-12-07T07:29:17;94704.05;;;5.89;100.00
6196;BME280;3131;42.630;23.382;2022-12-07T07:31:47;94692.72;;;6.00;100.00
6196;BME280;3131;42.630;23.382;2022-12-07T07:34:16;94686.38;;;6.02;100.00
6196;BME280;3131;42.630;23.382;2022-12-07T07:36:45;94670.27;;;6.08;100.00
6196;BME280;3131;42.630;23.382;2022-12-07T07:39:15;94670.14;;;6.11;100.00
6196;BME280;3131;42.630;23.382;2022-12-07T07:41:44;94662.73;;;5.99;100.00
6196;BME280;3131;42.630;23.382;2022-12-07T07:44:13;94658.11;;;6.36;100.00
6196;BME280;3131;42.630;23.382;2022-12-07T07:46:43;94642.87;;;6.49;100.00
6196;BME280;3131;42.630;23.382;2022-12-07T07:49:12;94631.97;;;6.42;100.00
6196;BME280;3131;42.630;23.382;2022-12-07T07:51:42;94629.12;;;6.76;100.00
6196;BME280;3131;42.630;23.382;2022-12-07T07:54:11;94622.68;;;7.54;100.00
6196;BME280;3131;42.630;23.382;2022-12-07T07:56:40;94594.70;;;7.77;100.00
6196;BME280;3131;42.630;23.382;2022-12-07T07:59:09;94569.17;;;8.08;100.00
6196;BME280;3131;42.630;23.382;2022-12-07T08:01:39;94548.73;;;8.67;100.00
6196;BME280;3131;42.630;23.382;2022-12-07T08:04:08;94525.49;;;9.62;100.00
6196;BME280;3131;42.630;23.382;2022-12-07T08:06:37;94491.03;;;10.75;100.00
6196;BME280;3131;42.630;23.382;2022-12-07T08:09:06;94451.26;;;11.71;100.00
6196;BME280;3131;42.630;23.382;2022-12-07T08:11:36;94412.24;;;10.90;100.00
6196;BME280;3131;42.630;23.382;2022-12-07T08:14:05;94426.11;;;10.59;100.00
6196;BME280;3131;42.630;23.382;2022-12-07T08:16:35;94424.16;;;11.25;100.00
6196;BME280;3131;42.630;23.382;2022-12-07T08:19:06;94403.69;;;12.69;100.00
6196;BME280;3131;42.630;23.382;2022-12-07T08:21:35;94384.98;;;13.09;100.00
6196;BME280;3131;42.630;23.382;2022-12-07T08:24:06;94372.62;;;12.39;100.00
6196;BME280;3131;42.630;23.382;2022-12-07T08:26:35;94376.68;;;11.89;100.00
6196;BME280;3131;42.630;23.382;2022-12-07T08:29:04;94385.98;;;11.59;100.00
6196;BME280;3131;42.630;23.382;2022-12-07T08:31:34;94391.61;;;10.72;100.00
6196;BME280;3131;42.630;23.382;2022-12-07T08:34:03;94395.77;;;10.02;100.00
6196;BME280;3131;42.630;23.382;2022-12-07T08:36:33;94401.19;;;10.03;100.00
6196;BME280;3131;42.630;23.382;2022-12-07T08:39:02;94407.88;;;9.64;100.00
6196;BME280;3131;42.630;23.382;2022-12-07T08:41:32;94410.70;;;9.25;100.00
6196;BME280;3131;42.630;23.382;2022-12-07T08:44:01;94419.05;;;8.99;100.00
6196;BME280;3131;42.630;23.382;2022-12-07T08:46:32;94427.74;;;9.00;100.00
6196;BME280;3131;42.630;23.382;2022-12-07T08:49:07;94424.81;;;8.87;100.00
6196;BME280;3131;42.630;23.382;2022-12-07T08:54:21;94421.33;;;8.82;100.00
6196;BME280;3131;42.630;23.382;2022-12-07T08:56:51;94430.58;;;8.67;100.00
6196;BME280;3131;42.630;23.382;2022-12-07T08:59:22;94436.61;;;8.50;100.00
6196;BME280;3131;42.630;23.382;2022-12-07T09:01:52;94428.53;;;8.59;100.00
6196;BME280;3131;42.630;23.382;2022-12-07T09:04:21;94420.59;;;8.66;100.00
6196;BME280;3131;42.630;23.382;2022-12-07T09:06:50;94422.11;;;8.32;100.00
6196;BME280;3131;42.630;23.382;2022-12-07T09:09:20;94431.42;;;8.16;100.00
6196;BME280;3131;42.630;23.382;2022-12-07T09:11:49;94435.02;;;8.19;100.00
6196;BME280;3131;42.630;23.382;2022-12-07T09:14:18;94431.98;;;8.28;100.00
6196;BME280;3131;42.630;23.382;2022-12-07T09:16:48;94433.03;;;8.24;100.00
6196;BME280;3131;42.630;23.382;2022-12-07T09:19:17;94425.98;;;8.31;100.00
6196;BME280;3131;42.630;23.382;2022-12-07T09:21:46;94422.42;;;8.56;100.00
6196;BME280;3131;42.630;23.382;2022-12-07T09:24:16;94409.10;;;8.83;100.00
6196;BME280;3131;42.630;23.382;2022-12-07T09:26:45;94398.31;;;8.95;100.00
6196;BME280;3131;42.630;23.382;2022-12-07T09:29:15;94386.70;;;9.00;100.00
6196;BME280;3131;42.630;23.382;2022-12-07T09:31:44;94380.89;;;9.19;100.00
6196;BME280;3131;42.630;23.382;2022-12-07T09:34:13;94379.44;;;9.29;100.00
6196;BME280;3131;42.630;23.382;2022-12-07T09:36:43;94386.42;;;9.32;100.00
6196;BME280;3131;42.630;23.382;2022-12-07T09:39:12;94384.69;;;9.12;100.00
6196;BME280;3131;42.630;23.382;2022-12-07T09:41:43;94372.64;;;9.17;100.00
6196;BME280;3131;42.630;23.382;2022-12-07T09:44:16;94374.25;;;9.18;100.00
6196;BME280;3131;42.630;23.382;2022-12-07T09:46:46;94363.20;;;9.21;100.00
6196;BME280;3131;42.630;23.382;2022-12-07T09:52:16;94350.88;;;9.23;100.00
6196;BME280;3131;42.630;23.382;2022-12-07T09:54:48;94349.62;;;9.16;100.00
6196;BME280;3131;42.630;23.382;2022-12-07T09:57:27;94329.79;;;8.92;100.00
6196;BME280;3131;42.630;23.382;2022-12-07T09:59:49;94351.38;;;9.28;100.00
6196;BME280;3131;42.630;23.382;2022-12-07T10:02:28;94340.64;;;9.59;100.00
6196;BME280;3131;42.630;23.382;2022-12-07T10:04:57;94330.19;;;9.78;100.00
6196;BME280;3131;42.630;23.382;2022-12-07T10:07:26;94331.70;;;9.81;100.00
6196;BME280;3131;42.630;23.382;2022-12-07T10:09:55;94323.23;;;9.94;100.00
6196;BME280;3131;42.630;23.382;2022-12-07T10:12:25;94311.18;;;10.05;100.00
6196;BME280;3131;42.630;23.382;2022-12-07T10:14:57;94304.47;;;10.37;100.00
6196;BME280;3131;42.630;23.382;2022-12-07T10:17:36;94293.97;;;10.43;100.00
6196;BME280;3131;42.630;23.382;2022-12-07T10:20:23;94279.86;;;12.34;100.00
6196;BME280;3131;42.630;23.382;2022-12-07T10:22:57;94231.89;;;13.82;100.00
6196;BME280;3131;42.630;23.382;2022-12-07T10:25:29;94230.06;;;12.94;100.00
6196;BME280;3131;42.630;23.382;2022-12-07T10:28:03;94227.55;;;12.45;100.00
6196;BME280;3131;42.630;23.382;2022-12-07T10:30:34;94218.44;;;13.18;100.00
6196;BME280;3131;42.630;23.382;2022-12-07T10:33:08;94221.58;;;14.89;100.00
6196;BME280;3131;42.630;23.382;2022-12-07T10:35:40;94207.59;;;17.43;94.02
6196;BME280;3131;42.630;23.382;2022-12-07T10:41:06;94219.09;;;17.03;67.87
6196;BME280;3131;42.630;23.382;2022-12-07T10:43:35;94216.91;;;15.04;82.01
6196;BME280;3131;42.630;23.382;2022-12-07T10:46:27;94202.61;;;14.24;91.55
6196;BME280;3131;42.630;23.382;2022-12-07T10:51:42;94187.56;;;12.77;100.00
6196;BME280;3131;42.630;23.382;2022-12-07T10:54:15;94191.10;;;11.93;100.00
6196;BME280;3131;42.630;23.382;2022-12-07T10:56:55;94148.23;;;11.63;100.00
6196;BME280;3131;42.630;23.382;2022-12-07T10:59:37;94151.01;;;11.83;100.00
6196;BME280;3131;42.630;23.382;2022-12-07T11:05:04;94133.89;;;11.92;100.00
6196;BME280;3131;42.630;23.382;2022-12-07T11:10:22;94105.32;;;11.24;100.00
6196;BME280;3131;42.630;23.382;2022-12-07T11:13:21;94122.53;;;11.47;100.00
6196;BME280;3131;42.630;23.382;2022-12-07T11:16:06;94122.53;;;11.25;100.00
6196;BME280;3131;42.630;23.382;2022-12-07T11:21:26;94127.35;;;11.28;100.00
6196;BME280;3131;42.630;23.382;2022-12-07T11:23:59;94113.69;;;11.08;100.00
6196;BME280;3131;42.630;23.382;2022-12-07T11:26:52;94105.19;;;11.09;100.00
6196;BME280;3131;42.630;23.382;2022-12-07T11:32:42;94105.51;;;10.82;100.00
6196;BME280;3131;42.630;23.382;2022-12-07T11:35:09;94086.23;;;10.86;100.00
6196;BME280;3131;42.630;23.382;2022-12-07T11:37:39;94095.49;;;10.75;100.00
6196;BME280;3131;42.630;23.382;2022-12-07T11:40:15;94088.66;;;10.82;100.00
6196;BME280;3131;42.630;23.382;2022-12-07T11:42:51;94088.52;;;10.73;100.00
6196;BME280;3131;42.630;23.382;2022-12-07T11:48:03;94090.38;;;10.82;100.00
6196;BME280;3131;42.630;23.382;2022-12-07T11:53:25;94070.94;;;10.65;100.00
6196;BME280;3131;42.630;23.382;2022-12-07T11:55:57;94067.89;;;10.90;100.00
6196;BME280;3131;42.630;23.382;2022-12-07T11:58:40;94069.70;;;10.71;100.00
6196;BME280;3131;42.630;23.382;2022-12-07T12:01:15;94074.94;;;10.62;100.00
6196;BME280;3131;42.630;23.382;2022-12-07T12:03:47;94067.78;;;10.97;100.00
6196;BME280;3131;42.630;23.382;2022-12-07T12:06:17;94068.48;;;11.16;100.00
6196;BME280;3131;42.630;23.382;2022-12-07T12:11:43;94062.11;;;11.95;100.00
6196;BME280;3131;42.630;23.382;2022-12-07T12:14:24;94075.41;;;12.82;100.00
6196;BME280;3131;42.630;23.382;2022-12-07T12:17:14;94074.16;;;12.35;100.00
6196;BME280;3131;42.630;23.382;2022-12-07T12:19:45;94061.50;;;13.13;100.00
6196;BME280;3131;42.630;23.382;2022-12-07T12:24:58;94068.80;;;13.92;100.00
6196;BME280;3131;42.630;23.382;2022-12-07T12:27:30;94066.83;;;16.35;97.60
6196;BME280;3131;42.630;23.382;2022-12-07T12:30:01;94091.20;;;18.73;70.43
6196;BME280;3131;42.630;23.382;2022-12-07T12:35:30;94092.00;;;17.91;69.96
6196;BME280;3131;42.630;23.382;2022-12-07T12:41:51;94080.97;;;17.17;66.11
6196;BME280;3131;42.630;23.382;2022-12-07T12:43:43;94068.69;;;14.81;80.84
6196;BME280;3131;42.630;23.382;2022-12-07T12:46:50;94061.33;;;14.30;89.07
6196;BME280;3131;42.630;23.382;2022-12-07T12:53:02;94058.98;;;13.59;100.00
6196;BME280;3131;42.630;23.382;2022-12-07T12:58:45;94062.53;;;13.00;100.00
6196;BME280;3131;42.630;23.382;2022-12-07T13:01:50;94051.84;;;12.61;100.00
6196;BME280;3131;42.630;23.382;2022-12-07T13:07:59;94048.90;;;12.71;100.00
6196;BME280;3131;42.630;23.382;2022-12-07T13:10:46;94047.78;;;12.43;100.00
6196;BME280;3131;42.630;23.382;2022-12-07T13:13:33;94043.99;;;12.43;100.00
6196;BME280;3131;42.630;23.382;2022-12-07T13:16:39;94044.48;;;12.94;100.00
6196;BME280;3131;42.630;23.382;2022-12-07T13:22:58;94041.03;;;12.80;100.00
6196;BME280;3131;42.630;23.382;2022-12-07T13:25:46;94055.14;;;13.18;100.00
6196;BME280;3131;42.630;23.382;2022-12-07T13:28:17;94056.70;;;12.94;100.00
6196;BME280;3131;42.630;23.382;2022-12-07T13:33:40;94047.95;;;12.30;100.00
6196;BME280;3131;42.630;23.382;2022-12-07T13:36:18;94046.28;;;14.81;100.00
6196;BME280;3131;42.630;23.382;2022-12-07T13:38:53;94068.92;;;15.63;90.11
6196;BME280;3131;42.630;23.382;2022-12-07T13:41:24;94069.00;;;15.06;91.69
6196;BME280;3131;42.630;23.382;2022-12-07T13:44:02;94069.35;;;14.15;97.21
6196;BME280;3131;42.630;23.382;2022-12-07T13:49:47;94047.45;;;12.99;100.00
6196;BME280;3131;42.630;23.382;2022-12-07T13:52:18;94040.21;;;12.64;100.00
6196;BME280;3131;42.630;23.382;2022-12-07T13:54:54;94034.54;;;11.97;100.00
6196;BME280;3131;42.630;23.382;2022-12-07T13:57:20;94033.30;;;11.86;100.00
6196;BME280;3131;42.630;23.382;2022-12-07T13:59:50;94023.77;;;11.78;100.00
6196;BME280;3131;42.630;23.382;2022-12-07T14:02:21;94016.63;;;11.34;100.00
6196;BME280;3131;42.630;23.382;2022-12-07T14:04:51;94009.05;;;11.34;100.00
6196;BME280;3131;42.630;23.382;2022-12-07T14:07:25;94009.19;;;11.22;100.00
6196;BME280;3131;42.630;23.382;2022-12-07T14:09:57;94010.45;;;10.99;100.00
6196;BME280;3131;42.630;23.382;2022-12-07T14:12:28;94015.84;;;11.00;100.00
6196;BME280;3131;42.630;23.382;2022-12-07T14:14:59;94019.41;;;10.75;100.00
6196;BME280;3131;42.630;23.382;2022-12-07T14:17:30;94026.36;;;10.72;100.00
6196;BME280;3131;42.630;23.382;2022-12-07T14:20:00;94024.52;;;10.62;100.00
6196;BME280;3131;42.630;23.382;2022-12-07T14:22:32;94028.47;;;10.37;100.00
6196;BME280;3131;42.630;23.382;2022-12-07T14:25:22;94020.80;;;10.33;100.00
6196;BME280;3131;42.630;23.382;2022-12-07T14:28:01;94026.44;;;10.18;100.00
6196;BME280;3131;42.630;23.382;2022-12-07T14:30:32;94021.16;;;9.86;100.00
6196;BME280;3131;42.630;23.382;2022-12-07T14:33:03;94023.68;;;9.80;100.00
6196;BME280;3131;42.630;23.382;2022-12-07T14:35:33;94019.72;;;9.70;100.00
6196;BME280;3131;42.630;23.382;2022-12-07T14:38:02;94017.91;;;9.54;100.00
6196;BME280;3131;42.630;23.382;2022-12-07T14:40:32;94005.32;;;9.30;100.00
6196;BME280;3131;42.630;23.382;2022-12-07T14:43:03;94010.02;;;9.16;100.00
6196;BME280;3131;42.630;23.382;2022-12-07T14:45:34;94002.08;;;9.10;100.00
6196;BME280;3131;42.630;23.382;2022-12-07T14:48:04;94004.73;;;8.95;100.00
6196;BME280;3131;42.630;23.382;2022-12-07T14:53:18;93996.77;;;8.45;100.00
6196;BME280;3131;42.630;23.382;2022-12-07T14:55:48;93994.61;;;8.26;100.00
6196;BME280;3131;42.630;23.382;2022-12-07T14:58:18;93995.73;;;8.14;100.00
6196;BME280;3131;42.630;23.382;2022-12-07T15:00:48;93986.45;;;8.09;100.00
6196;BME280;3131;42.630;23.382;2022-12-07T15:03:17;93990.03;;;8.05;100.00
6196;BME280;3131;42.630;23.382;2022-12-07T15:05:46;93989.59;;;7.93;100.00
6196;BME280;3131;42.630;23.382;2022-12-07T15:08:16;93997.96;;;7.79;100.00
6196;BME280;3131;42.630;23.382;2022-12-07T15:10:46;93998.15;;;7.83;100.00
6196;BME280;3131;42.630;23.382;2022-12-07T15:13:15;93993.25;;;7.75;100.00
6196;BME280;3131;42.630;23.382;2022-12-07T15:16:02;93998.03;;;7.58;100.00
6196;BME280;3131;42.630;23.382;2022-12-07T15:18:31;93994.78;;;7.43;100.00
6196;BME280;3131;42.630;23.382;2022-12-07T15:21:00;93995.26;;;7.28;100.00
6196;BME280;3131;42.630;23.382;2022-12-07T15:23:30;93989.98;;;7.26;100.00
6196;BME280;3131;42.630;23.382;2022-12-07T15:25:59;93991.52;;;7.21;100.00
6196;BME280;3131;42.630;23.382;2022-12-07T15:28:29;93993.59;;;7.14;100.00
6196;BME280;3131;42.630;23.382;2022-12-07T15:30:58;93988.14;;;7.08;100.00
6196;BME280;3131;42.630;23.382;2022-12-07T15:33:27;93988.13;;;7.01;100.00
6196;BME280;3131;42.630;23.382;2022-12-07T15:35:58;93996.30;;;6.90;100.00
6196;BME280;3131;42.630;23.382;2022-12-07T15:38:27;93995.32;;;6.92;100.00
6196;BME280;3131;42.630;23.382;2022-12-07T15:40:58;93987.24;;;6.94;100.00
6196;BME280;3131;42.630;23.382;2022-12-07T15:43:27;93991.56;;;6.92;100.00
6196;BME280;3131;42.630;23.382;2022-12-07T15:46:14;93988.78;;;6.90;100.00
6196;BME280;3131;42.630;23.382;2022-12-07T15:48:43;93987.81;;;6.85;100.00
6196;BME280;3131;42.630;23.382;2022-12-07T15:51:14;93991.58;;;6.85;100.00
6196;BME280;3131;42.630;23.382;2022-12-07T15:53:43;93989.67;;;6.82;100.00
6196;BME280;3131;42.630;23.382;2022-12-07T15:56:13;93989.50;;;6.78;100.00
6196;BME280;3131;42.630;23.382;2022-12-07T15:58:42;93992.17;;;6.82;100.00